sensor_id;sensor_type;location;lat;lon;timestamp;P1;durP1;ratioP1;P2;durP2;ratioP2
35494;SDS011;21608;49.300;6.846;2022-10-31T00:02:14;1.67;;;1.58;;
35494;SDS011;21608;49.300;6.846;2022-10-31T00:05:16;2.00;;;1.80;;
35494;SDS011;21608;49.300;6.846;2022-10-31T00:08:18;2.42;;;1.73;;
35494;SDS011;21608;49.300;6.846;2022-10-31T00:11:20;2.65;;;1.30;;
35494;SDS011;21608;49.300;6.846;2022-10-31T00:14:21;2.22;;;1.70;;
35494;SDS011;21608;49.300;6.846;2022-10-31T00:17:23;2.83;;;1.50;;
35494;SDS011;21608;49.300;6.846;2022-10-31T00:20:25;1.67;;;1.58;;
35494;SDS011;21608;49.300;6.846;2022-10-31T00:23:27;1.70;;;1.60;;
35494;SDS011;21608;49.300;6.846;2022-10-31T00:26:29;2.67;;;1.73;;
35494;SDS011;21608;49.300;6.846;2022-10-31T00:29:32;1.60;;;1.50;;
35494;SDS011;21608;49.300;6.846;2022-10-31T00:32:34;2.08;;;1.50;;
35494;SDS011;21608;49.300;6.846;2022-10-31T00:35:36;1.60;;;1.50;;
35494;SDS011;21608;49.300;6.846;2022-10-31T00:38:38;3.95;;;1.80;;
35494;SDS011;21608;49.300;6.846;2022-10-31T00:41:40;1.60;;;1.38;;
35494;SDS011;21608;49.300;6.846;2022-10-31T00:44:46;2.55;;;1.70;;
35494;SDS011;21608;49.300;6.846;2022-10-31T00:47:47;1.27;;;1.17;;
35494;SDS011;21608;49.300;6.846;2022-10-31T00:50:49;1.60;;;1.50;;
35494;SDS011;21608;49.300;6.846;2022-10-31T00:53:51;1.65;;;1.40;;
35494;SDS011;21608;49.300;6.846;2022-10-31T00:56:53;1.40;;;1.30;;
35494;SDS011;21608;49.300;6.846;2022-10-31T00:59:54;2.10;;;1.88;;
35494;SDS011;21608;49.300;6.846;2022-10-31T01:02:56;2.50;;;1.40;;
35494;SDS011;21608;49.300;6.846;2022-10-31T01:06:03;1.90;;;1.45;;
35494;SDS011;21608;49.300;6.846;2022-10-31T01:09:06;1.45;;;1.35;;
35494;SDS011;21608;49.300;6.846;2022-10-31T01:12:08;2.00;;;1.80;;
35494;SDS011;21608;49.300;6.846;2022-10-31T01:15:13;1.48;;;1.38;;
35494;SDS011;21608;49.300;6.846;2022-10-31T01:18:17;1.70;;;1.60;;
35494;SDS011;21608;49.300;6.846;2022-10-31T01:21:23;1.92;;;1.70;;
35494;SDS011;21608;49.300;6.846;2022-10-31T01:24:27;1.88;;;1.42;;
35494;SDS011;21608;49.300;6.846;2022-10-31T01:27:28;2.10;;;1.45;;
35494;SDS011;21608;49.300;6.846;2022-10-31T01:30:30;2.03;;;1.92;;
35494;SDS011;21608;49.300;6.846;2022-10-31T01:33:33;3.53;;;2.22;;
35494;SDS011;21608;49.300;6.846;2022-10-31T01:36:37;1.75;;;1.65;;
35494;SDS011;21608;49.300;6.846;2022-10-31T01:39:39;2.03;;;1.50;;
35494;SDS011;21608;49.300;6.846;2022-10-31T01:42:41;2.42;;;1.60;;
35494;SDS011;21608;49.300;6.846;2022-10-31T01:45:43;2.70;;;1.98;;
35494;SDS011;21608;49.300;6.846;2022-10-31T01:48:50;1.58;;;1.48;;
35494;SDS011;21608;49.300;6.846;2022-10-31T01:51:55;1.42;;;1.30;;
35494;SDS011;21608;49.300;6.846;2022-10-31T01:58:12;3.30;;;1.58;;
35494;SDS011;21608;49.300;6.846;2022-10-31T02:01:21;1.95;;;1.30;;
35494;SDS011;21608;49.300;6.846;2022-10-31T02:04:23;1.75;;;1.60;;
35494;SDS011;21608;49.300;6.846;2022-10-31T02:07:27;1.42;;;1.33;;
35494;SDS011;21608;49.300;6.846;2022-10-31T02:10:36;2.08;;;1.63;;
35494;SDS011;21608;49.300;6.846;2022-10-31T02:13:38;1.90;;;1.65;;
35494;SDS011;21608;49.300;6.846;2022-10-31T02:16:41;1.60;;;1.50;;
35494;SDS011;21608;49.300;6.846;2022-10-31T02:19:51;1.50;;;1.30;;
35494;SDS011;21608;49.300;6.846;2022-10-31T02:30:12;1.63;;;1.52;;
35494;SDS011;21608;49.300;6.846;2022-10-31T02:33:27;3.70;;;1.52;;
35494;SDS011;21608;49.300;6.846;2022-10-31T02:36:53;1.48;;;1.38;;
35494;SDS011;21608;49.300;6.846;2022-10-31T02:40:15;1.70;;;1.60;;
35494;SDS011;21608;49.300;6.846;2022-10-31T02:43:56;1.60;;;1.48;;
35494;SDS011;21608;49.300;6.846;2022-10-31T02:47:11;3.10;;;1.52;;
35494;SDS011;21608;49.300;6.846;2022-10-31T02:50:25;1.80;;;1.65;;
35494;SDS011;21608;49.300;6.846;2022-10-31T02:53:33;1.60;;;1.50;;
35494;SDS011;21608;49.300;6.846;2022-10-31T02:56:35;1.75;;;1.33;;
35494;SDS011;21608;49.300;6.846;2022-10-31T02:59:38;1.70;;;1.52;;
35494;SDS011;21608;49.300;6.846;2022-10-31T03:06:33;1.30;;;1.20;;
35494;SDS011;21608;49.300;6.846;2022-10-31T03:09:53;1.85;;;1.55;;
35494;SDS011;21608;49.300;6.846;2022-10-31T03:16:47;1.60;;;1.50;;
35494;SDS011;21608;49.300;6.846;2022-10-31T03:19:52;1.85;;;1.70;;
35494;SDS011;21608;49.300;6.846;2022-10-31T03:22:56;1.60;;;1.50;;
35494;SDS011;21608;49.300;6.846;2022-10-31T03:26:00;1.85;;;1.63;;
35494;SDS011;21608;49.300;6.846;2022-10-31T03:29:06;1.85;;;1.40;;
35494;SDS011;21608;49.300;6.846;2022-10-31T03:35:22;1.80;;;1.50;;
35494;SDS011;21608;49.300;6.846;2022-10-31T03:38:27;1.60;;;1.50;;
35494;SDS011;21608;49.300;6.846;2022-10-31T03:41:31;1.50;;;1.40;;
35494;SDS011;21608;49.300;6.846;2022-10-31T03:44:37;1.60;;;1.50;;
35494;SDS011;21608;49.300;6.846;2022-10-31T03:47:42;1.70;;;1.60;;
35494;SDS011;21608;49.300;6.846;2022-10-31T03:53:56;1.85;;;1.40;;
35494;SDS011;21608;49.300;6.846;2022-10-31T03:57:27;2.35;;;1.85;;
35494;SDS011;21608;49.300;6.846;2022-10-31T04:00:35;2.07;;;1.60;;
35494;SDS011;21608;49.300;6.846;2022-10-31T04:03:42;2.10;;;1.60;;
35494;SDS011;21608;49.300;6.846;2022-10-31T04:06:46;1.83;;;1.73;;
35494;SDS011;21608;49.300;6.846;2022-10-31T04:09:50;1.58;;;1.48;;
35494;SDS011;21608;49.300;6.846;2022-10-31T04:13:00;1.55;;;1.45;;
35494;SDS011;21608;49.300;6.846;2022-10-31T04:16:31;1.50;;;1.40;;
35494;SDS011;21608;49.300;6.846;2022-10-31T04:19:34;1.77;;;1.30;;
35494;SDS011;21608;49.300;6.846;2022-10-31T04:22:36;1.65;;;1.55;;
35494;SDS011;21608;49.300;6.846;2022-10-31T04:25:38;1.45;;;1.35;;
35494;SDS011;21608;49.300;6.846;2022-10-31T04:28:40;1.70;;;1.60;;
35494;SDS011;21608;49.300;6.846;2022-10-31T04:31:42;2.08;;;1.50;;
35494;SDS011;21608;49.300;6.846;2022-10-31T04:34:44;2.45;;;1.73;;
35494;SDS011;21608;49.300;6.846;2022-10-31T04:37:45;1.42;;;1.33;;
35494;SDS011;21608;49.300;6.846;2022-10-31T04:40:47;2.92;;;1.60;;
35494;SDS011;21608;49.300;6.846;2022-10-31T04:44:19;2.03;;;1.92;;
35494;SDS011;21608;49.300;6.846;2022-10-31T04:47:25;1.80;;;1.70;;
35494;SDS011;21608;49.300;6.846;2022-10-31T04:50:27;1.92;;;1.60;;
35494;SDS011;21608;49.300;6.846;2022-10-31T04:53:29;2.05;;;1.83;;
35494;SDS011;21608;49.300;6.846;2022-10-31T04:56:49;2.35;;;1.65;;
35494;SDS011;21608;49.300;6.846;2022-10-31T04:59:55;1.80;;;1.70;;
35494;SDS011;21608;49.300;6.846;2022-10-31T05:02:58;1.52;;;1.42;;
35494;SDS011;21608;49.300;6.846;2022-10-31T05:06:01;2.88;;;1.50;;
35494;SDS011;21608;49.300;6.846;2022-10-31T05:09:03;2.90;;;1.67;;
35494;SDS011;21608;49.300;6.846;2022-10-31T05:12:05;1.73;;;1.60;;
35494;SDS011;21608;49.300;6.846;2022-10-31T05:15:29;2.00;;;1.90;;
35494;SDS011;21608;49.300;6.846;2022-10-31T05:18:50;1.60;;;1.50;;
35494;SDS011;21608;49.300;6.846;2022-10-31T05:22:17;3.23;;;1.60;;
35494;SDS011;21608;49.300;6.846;2022-10-31T05:25:20;1.77;;;1.67;;
35494;SDS011;21608;49.300;6.846;2022-10-31T05:28:23;1.52;;;1.42;;
35494;SDS011;21608;49.300;6.846;2022-10-31T05:31:25;1.90;;;1.70;;
35494;SDS011;21608;49.300;6.846;2022-10-31T05:34:28;2.67;;;1.50;;
35494;SDS011;21608;49.300;6.846;2022-10-31T05:37:55;2.25;;;1.80;;
35494;SDS011;21608;49.300;6.846;2022-10-31T05:40:59;1.60;;;1.40;;
35494;SDS011;21608;49.300;6.846;2022-10-31T05:44:06;2.95;;;1.83;;
35494;SDS011;21608;49.300;6.846;2022-10-31T05:47:20;2.47;;;1.50;;
35494;SDS011;21608;49.300;6.846;2022-10-31T05:50:57;2.20;;;2.10;;
35494;SDS011;21608;49.300;6.846;2022-10-31T05:53:59;3.17;;;1.70;;
35494;SDS011;21608;49.300;6.846;2022-10-31T05:57:01;1.48;;;1.38;;
35494;SDS011;21608;49.300;6.846;2022-10-31T06:00:04;1.63;;;1.52;;
35494;SDS011;21608;49.300;6.846;2022-10-31T06:03:21;1.83;;;1.73;;
35494;SDS011;21608;49.300;6.846;2022-10-31T06:06:29;1.83;;;1.73;;
35494;SDS011;21608;49.300;6.846;2022-10-31T06:09:31;1.70;;;1.45;;
35494;SDS011;21608;49.300;6.846;2022-10-31T06:12:33;2.13;;;1.63;;
35494;SDS011;21608;49.300;6.846;2022-10-31T06:15:48;2.13;;;1.90;;
35494;SDS011;21608;49.300;6.846;2022-10-31T06:18:53;1.83;;;1.73;;
35494;SDS011;21608;49.300;6.846;2022-10-31T06:21:55;1.70;;;1.60;;
35494;SDS011;21608;49.300;6.846;2022-10-31T06:24:57;2.13;;;1.92;;
35494;SDS011;21608;49.300;6.846;2022-10-31T06:28:05;1.85;;;1.75;;
35494;SDS011;21608;49.300;6.846;2022-10-31T06:31:18;1.83;;;1.73;;
35494;SDS011;21608;49.300;6.846;2022-10-31T06:34:20;1.88;;;1.77;;
35494;SDS011;21608;49.300;6.846;2022-10-31T06:37:21;1.80;;;1.70;;
35494;SDS011;21608;49.300;6.846;2022-10-31T06:40:24;1.92;;;1.50;;
35494;SDS011;21608;49.300;6.846;2022-10-31T06:43:48;1.77;;;1.67;;
35494;SDS011;21608;49.300;6.846;2022-10-31T06:47:28;1.65;;;1.55;;
35494;SDS011;21608;49.300;6.846;2022-10-31T06:50:35;1.93;;;1.77;;
35494;SDS011;21608;49.300;6.846;2022-10-31T06:53:36;2.08;;;1.83;;
35494;SDS011;21608;49.300;6.846;2022-10-31T06:56:40;1.83;;;1.73;;
35494;SDS011;21608;49.300;6.846;2022-10-31T06:59:42;1.70;;;1.50;;
35494;SDS011;21608;49.300;6.846;2022-10-31T07:03:10;2.45;;;1.92;;
35494;SDS011;21608;49.300;6.846;2022-10-31T07:06:13;1.80;;;1.70;;
35494;SDS011;21608;49.300;6.846;2022-10-31T07:09:16;3.25;;;1.70;;
35494;SDS011;21608;49.300;6.846;2022-10-31T07:12:18;2.30;;;2.08;;
35494;SDS011;21608;49.300;6.846;2022-10-31T07:15:32;1.83;;;1.70;;
35494;SDS011;21608;49.300;6.846;2022-10-31T07:18:35;2.70;;;1.95;;
35494;SDS011;21608;49.300;6.846;2022-10-31T07:21:37;1.88;;;1.77;;
35494;SDS011;21608;49.300;6.846;2022-10-31T07:24:39;2.42;;;1.77;;
35494;SDS011;21608;49.300;6.846;2022-10-31T07:28:16;2.00;;;1.77;;
35494;SDS011;21608;49.300;6.846;2022-10-31T07:31:20;1.77;;;1.67;;
35494;SDS011;21608;49.300;6.846;2022-10-31T07:34:24;2.55;;;1.90;;
35494;SDS011;21608;49.300;6.846;2022-10-31T07:37:28;1.98;;;1.88;;
35494;SDS011;21608;49.300;6.846;2022-10-31T07:40:32;1.60;;;1.50;;
35494;SDS011;21608;49.300;6.846;2022-10-31T07:43:34;2.05;;;1.83;;
35494;SDS011;21608;49.300;6.846;2022-10-31T07:46:58;2.28;;;2.00;;
35494;SDS011;21608;49.300;6.846;2022-10-31T07:50:26;1.80;;;1.70;;
35494;SDS011;21608;49.300;6.846;2022-10-31T07:54:04;3.78;;;1.92;;
35494;SDS011;21608;49.300;6.846;2022-10-31T07:57:06;1.75;;;1.65;;
35494;SDS011;21608;49.300;6.846;2022-10-31T08:00:08;3.55;;;1.85;;
35494;SDS011;21608;49.300;6.846;2022-10-31T08:03:17;2.95;;;1.98;;
35494;SDS011;21608;49.300;6.846;2022-10-31T08:06:35;1.88;;;1.77;;
35494;SDS011;21608;49.300;6.846;2022-10-31T08:09:54;2.38;;;1.63;;
35494;SDS011;21608;49.300;6.846;2022-10-31T08:13:01;2.20;;;2.00;;
35494;SDS011;21608;49.300;6.846;2022-10-31T08:16:06;2.17;;;1.75;;
35494;SDS011;21608;49.300;6.846;2022-10-31T08:19:11;1.65;;;1.55;;
35494;SDS011;21608;49.300;6.846;2022-10-31T08:22:13;2.30;;;2.08;;
35494;SDS011;21608;49.300;6.846;2022-10-31T08:25:15;2.03;;;1.92;;
35494;SDS011;21608;49.300;6.846;2022-10-31T08:28:17;3.40;;;1.83;;
35494;SDS011;21608;49.300;6.846;2022-10-31T08:31:22;2.47;;;2.30;;
35494;SDS011;21608;49.300;6.846;2022-10-31T08:34:49;4.15;;;2.47;;
35494;SDS011;21608;49.300;6.846;2022-10-31T08:38:17;2.15;;;1.95;;
35494;SDS011;21608;49.300;6.846;2022-10-31T08:41:19;3.33;;;2.58;;
35494;SDS011;21608;49.300;6.846;2022-10-31T08:44:21;3.05;;;2.42;;
35494;SDS011;21608;49.300;6.846;2022-10-31T08:47:23;4.70;;;2.10;;
35494;SDS011;21608;49.300;6.846;2022-10-31T08:50:25;3.08;;;2.00;;
35494;SDS011;21608;49.300;6.846;2022-10-31T08:53:27;2.92;;;2.53;;
35494;SDS011;21608;49.300;6.846;2022-10-31T08:56:58;2.70;;;2.50;;
35494;SDS011;21608;49.300;6.846;2022-10-31T09:03:30;3.40;;;2.78;;
35494;SDS011;21608;49.300;6.846;2022-10-31T09:06:34;2.80;;;2.60;;
35494;SDS011;21608;49.300;6.846;2022-10-31T09:09:37;3.72;;;2.30;;
35494;SDS011;21608;49.300;6.846;2022-10-31T09:12:39;2.58;;;2.38;;
35494;SDS011;21608;49.300;6.846;2022-10-31T09:16:11;3.65;;;2.47;;
35494;SDS011;21608;49.300;6.846;2022-10-31T09:19:12;4.80;;;3.05;;
35494;SDS011;21608;49.300;6.846;2022-10-31T09:22:18;3.83;;;2.42;;
35494;SDS011;21608;49.300;6.846;2022-10-31T09:25:20;4.00;;;2.60;;
35494;SDS011;21608;49.300;6.846;2022-10-31T09:28:30;2.50;;;2.40;;
35494;SDS011;21608;49.300;6.846;2022-10-31T09:31:42;4.07;;;2.20;;
35494;SDS011;21608;49.300;6.846;2022-10-31T09:35:11;3.60;;;2.60;;
35494;SDS011;21608;49.300;6.846;2022-10-31T09:38:14;3.83;;;2.65;;
35494;SDS011;21608;49.300;6.846;2022-10-31T09:51:57;3.20;;;2.90;;
35494;SDS011;21608;49.300;6.846;2022-10-31T09:55:15;2.47;;;2.28;;
35494;SDS011;21608;49.300;6.846;2022-10-31T09:58:23;2.97;;;2.65;;
35494;SDS011;21608;49.300;6.846;2022-10-31T10:08:09;2.60;;;2.40;;
35494;SDS011;21608;49.300;6.846;2022-10-31T10:11:42;3.70;;;2.70;;
35494;SDS011;21608;49.300;6.846;2022-10-31T10:28:30;2.85;;;2.65;;
35494;SDS011;21608;49.300;6.846;2022-10-31T10:31:40;3.03;;;2.78;;
35494;SDS011;21608;49.300;6.846;2022-10-31T10:34:45;2.72;;;2.53;;
35494;SDS011;21608;49.300;6.846;2022-10-31T10:37:52;3.05;;;2.53;;
35494;SDS011;21608;49.300;6.846;2022-10-31T10:41:02;4.00;;;2.53;;
35494;SDS011;21608;49.300;6.846;2022-10-31T10:44:08;3.15;;;2.75;;
35494;SDS011;21608;49.300;6.846;2022-10-31T10:47:11;3.17;;;2.53;;
35494;SDS011;21608;49.300;6.846;2022-10-31T10:50:33;2.70;;;2.40;;
35494;SDS011;21608;49.300;6.846;2022-10-31T10:53:40;2.20;;;2.10;;
35494;SDS011;21608;49.300;6.846;2022-10-31T11:03:40;3.50;;;2.30;;
35494;SDS011;21608;49.300;6.846;2022-10-31T11:06:42;6.88;;;2.40;;
35494;SDS011;21608;49.300;6.846;2022-10-31T11:09:44;6.18;;;2.92;;
35494;SDS011;21608;49.300;6.846;2022-10-31T11:12:58;4.45;;;2.30;;
35494;SDS011;21608;49.300;6.846;2022-10-31T11:16:07;5.90;;;3.90;;
35494;SDS011;21608;49.300;6.846;2022-10-31T11:22:16;9.52;;;4.68;;
35494;SDS011;21608;49.300;6.846;2022-10-31T11:28:20;8.23;;;4.05;;
35494;SDS011;21608;49.300;6.846;2022-10-31T11:31:22;7.22;;;3.55;;
35494;SDS011;21608;49.300;6.846;2022-10-31T11:34:30;4.78;;;3.42;;
35494;SDS011;21608;49.300;6.846;2022-10-31T11:37:43;8.07;;;4.00;;
35494;SDS011;21608;49.300;6.846;2022-10-31T11:40:51;6.88;;;3.42;;
35494;SDS011;21608;49.300;6.846;2022-10-31T11:47:25;4.38;;;3.85;;
35494;SDS011;21608;49.300;6.846;2022-10-31T11:50:36;4.55;;;3.35;;
35494;SDS011;21608;49.300;6.846;2022-10-31T11:53:47;5.38;;;3.45;;
35494;SDS011;21608;49.300;6.846;2022-10-31T11:57:00;8.20;;;3.13;;
35494;SDS011;21608;49.300;6.846;2022-10-31T12:00:03;4.95;;;2.75;;
35494;SDS011;21608;49.300;6.846;2022-10-31T12:06:24;4.85;;;2.67;;
35494;SDS011;21608;49.300;6.846;2022-10-31T12:09:35;4.30;;;2.90;;
35494;SDS011;21608;49.300;6.846;2022-10-31T12:15:50;13.23;;;3.25;;
35494;SDS011;21608;49.300;6.846;2022-10-31T12:25:44;7.30;;;3.53;;
35494;SDS011;21608;49.300;6.846;2022-10-31T12:29:07;5.07;;;3.58;;
35494;SDS011;21608;49.300;6.846;2022-10-31T12:35:50;6.82;;;3.92;;
35494;SDS011;21608;49.300;6.846;2022-10-31T12:39:05;7.68;;;3.92;;
35494;SDS011;21608;49.300;6.846;2022-10-31T12:55:53;5.47;;;3.65;;
35494;SDS011;21608;49.300;6.846;2022-10-31T13:05:31;7.72;;;3.83;;
35494;SDS011;21608;49.300;6.846;2022-10-31T13:08:44;8.35;;;4.15;;
35494;SDS011;21608;49.300;6.846;2022-10-31T13:11:53;11.63;;;3.78;;
35494;SDS011;21608;49.300;6.846;2022-10-31T13:15:03;14.80;;;4.07;;
35494;SDS011;21608;49.300;6.846;2022-10-31T13:21:36;7.78;;;4.30;;
35494;SDS011;21608;49.300;6.846;2022-10-31T13:24:59;8.40;;;4.00;;
35494;SDS011;21608;49.300;6.846;2022-10-31T13:31:32;5.32;;;3.47;;
35494;SDS011;21608;49.300;6.846;2022-10-31T13:34:36;5.82;;;3.70;;
35494;SDS011;21608;49.300;6.846;2022-10-31T13:37:43;6.77;;;3.53;;
35494;SDS011;21608;49.300;6.846;2022-10-31T13:40:56;4.32;;;3.40;;
35494;SDS011;21608;49.300;6.846;2022-10-31T13:47:26;7.28;;;3.38;;
35494;SDS011;21608;49.300;6.846;2022-10-31T13:50:30;11.65;;;3.45;;
35494;SDS011;21608;49.300;6.846;2022-10-31T13:53:37;5.78;;;3.75;;
35494;SDS011;21608;49.300;6.846;2022-10-31T13:56:40;8.20;;;3.63;;
35494;SDS011;21608;49.300;6.846;2022-10-31T13:59:46;10.00;;;3.55;;
35494;SDS011;21608;49.300;6.846;2022-10-31T14:02:52;7.50;;;3.55;;
35494;SDS011;21608;49.300;6.846;2022-10-31T14:05:55;9.73;;;3.55;;
35494;SDS011;21608;49.300;6.846;2022-10-31T14:08:58;8.18;;;3.10;;
35494;SDS011;21608;49.300;6.846;2022-10-31T14:12:04;7.97;;;3.25;;
35494;SDS011;21608;49.300;6.846;2022-10-31T14:24:42;6.22;;;3.17;;
35494;SDS011;21608;49.300;6.846;2022-10-31T14:27:44;5.88;;;3.75;;
35494;SDS011;21608;49.300;6.846;2022-10-31T14:30:55;6.47;;;3.50;;
35494;SDS011;21608;49.300;6.846;2022-10-31T14:33:59;6.40;;;3.50;;
35494;SDS011;21608;49.300;6.846;2022-10-31T14:53:47;4.80;;;3.28;;
35494;SDS011;21608;49.300;6.846;2022-10-31T14:56:56;7.28;;;3.75;;
35494;SDS011;21608;49.300;6.846;2022-10-31T15:00:07;6.30;;;3.50;;
35494;SDS011;21608;49.300;6.846;2022-10-31T15:03:25;4.15;;;3.47;;
35494;SDS011;21608;49.300;6.846;2022-10-31T15:06:41;9.57;;;4.47;;
35494;SDS011;21608;49.300;6.846;2022-10-31T15:10:06;5.30;;;3.85;;
35494;SDS011;21608;49.300;6.846;2022-10-31T15:13:22;12.75;;;3.45;;
35494;SDS011;21608;49.300;6.846;2022-10-31T15:16:24;6.07;;;3.58;;
35494;SDS011;21608;49.300;6.846;2022-10-31T15:19:38;6.22;;;4.13;;
35494;SDS011;21608;49.300;6.846;2022-10-31T15:22:40;5.20;;;3.25;;
35494;SDS011;21608;49.300;6.846;2022-10-31T15:25:42;7.38;;;3.40;;
35494;SDS011;21608;49.300;6.846;2022-10-31T15:28:45;8.77;;;4.07;;
35494;SDS011;21608;49.300;6.846;2022-10-31T15:31:54;8.30;;;3.95;;
35494;SDS011;21608;49.300;6.846;2022-10-31T15:34:57;6.00;;;3.72;;
35494;SDS011;21608;49.300;6.846;2022-10-31T15:37:59;6.85;;;3.35;;
35494;SDS011;21608;49.300;6.846;2022-10-31T15:41:04;8.57;;;4.32;;
35494;SDS011;21608;49.300;6.846;2022-10-31T15:44:24;6.55;;;3.83;;
35494;SDS011;21608;49.300;6.846;2022-10-31T15:47:31;8.43;;;3.70;;
35494;SDS011;21608;49.300;6.846;2022-10-31T15:50:37;7.28;;;3.67;;
35494;SDS011;21608;49.300;6.846;2022-10-31T15:53:46;9.35;;;4.22;;
35494;SDS011;21608;49.300;6.846;2022-10-31T15:56:52;7.70;;;4.68;;
35494;SDS011;21608;49.300;6.846;2022-10-31T15:59:54;8.00;;;4.25;;
35494;SDS011;21608;49.300;6.846;2022-10-31T16:03:03;6.82;;;4.03;;
35494;SDS011;21608;49.300;6.846;2022-10-31T16:06:18;9.43;;;3.53;;
35494;SDS011;21608;49.300;6.846;2022-10-31T16:09:22;6.03;;;3.72;;
35494;SDS011;21608;49.300;6.846;2022-10-31T16:12:31;8.63;;;3.90;;
35494;SDS011;21608;49.300;6.846;2022-10-31T16:15:36;9.55;;;4.10;;
35494;SDS011;21608;49.300;6.846;2022-10-31T16:18:38;7.50;;;3.97;;
35494;SDS011;21608;49.300;6.846;2022-10-31T16:21:42;11.20;;;4.00;;
35494;SDS011;21608;49.300;6.846;2022-10-31T16:28:15;7.63;;;3.85;;
35494;SDS011;21608;49.300;6.846;2022-10-31T16:31:25;6.22;;;3.83;;
35494;SDS011;21608;49.300;6.846;2022-10-31T16:34:38;7.93;;;3.47;;
35494;SDS011;21608;49.300;6.846;2022-10-31T16:37:40;13.75;;;4.20;;
35494;SDS011;21608;49.300;6.846;2022-10-31T16:40:42;8.32;;;3.70;;
35494;SDS011;21608;49.300;6.846;2022-10-31T16:43:45;8.43;;;3.88;;
35494;SDS011;21608;49.300;6.846;2022-10-31T16:47:09;9.43;;;4.05;;
35494;SDS011;21608;49.300;6.846;2022-10-31T16:53:17;11.85;;;4.13;;
35494;SDS011;21608;49.300;6.846;2022-10-31T16:56:29;8.18;;;4.53;;
35494;SDS011;21608;49.300;6.846;2022-10-31T16:59:33;13.20;;;4.63;;
35494;SDS011;21608;49.300;6.846;2022-10-31T17:02:35;6.45;;;4.15;;
35494;SDS011;21608;49.300;6.846;2022-10-31T17:05:38;9.60;;;4.38;;
35494;SDS011;21608;49.300;6.846;2022-10-31T17:08:40;10.73;;;4.05;;
35494;SDS011;21608;49.300;6.846;2022-10-31T17:11:46;7.95;;;3.75;;
35494;SDS011;21608;49.300;6.846;2022-10-31T17:14:50;5.25;;;3.72;;
35494;SDS011;21608;49.300;6.846;2022-10-31T17:17:53;6.88;;;3.85;;
35494;SDS011;21608;49.300;6.846;2022-10-31T17:20:59;6.30;;;3.28;;
35494;SDS011;21608;49.300;6.846;2022-10-31T17:24:03;11.20;;;4.07;;
35494;SDS011;21608;49.300;6.846;2022-10-31T17:27:05;6.25;;;3.40;;
35494;SDS011;21608;49.300;6.846;2022-10-31T17:30:07;5.90;;;3.88;;
35494;SDS011;21608;49.300;6.846;2022-10-31T17:33:11;8.77;;;3.85;;
35494;SDS011;21608;49.300;6.846;2022-10-31T17:36:15;6.45;;;3.90;;
35494;SDS011;21608;49.300;6.846;2022-10-31T17:39:17;7.03;;;4.10;;
35494;SDS011;21608;49.300;6.846;2022-10-31T17:42:19;12.23;;;3.88;;
35494;SDS011;21608;49.300;6.846;2022-10-31T17:45:22;7.85;;;4.53;;
35494;SDS011;21608;49.300;6.846;2022-10-31T17:48:25;5.75;;;3.78;;
35494;SDS011;21608;49.300;6.846;2022-10-31T17:51:28;8.85;;;4.32;;
35494;SDS011;21608;49.300;6.846;2022-10-31T17:54:30;8.50;;;3.35;;
35494;SDS011;21608;49.300;6.846;2022-10-31T17:57:33;9.82;;;4.38;;
35494;SDS011;21608;49.300;6.846;2022-10-31T18:00:37;9.98;;;4.22;;
35494;SDS011;21608;49.300;6.846;2022-10-31T18:03:41;7.07;;;4.35;;
35494;SDS011;21608;49.300;6.846;2022-10-31T18:06:43;6.85;;;4.05;;
35494;SDS011;21608;49.300;6.846;2022-10-31T18:09:46;10.32;;;4.45;;
35494;SDS011;21608;49.300;6.846;2022-10-31T18:12:48;5.80;;;3.78;;
35494;SDS011;21608;49.300;6.846;2022-10-31T18:15:49;6.05;;;4.03;;
35494;SDS011;21608;49.300;6.846;2022-10-31T18:18:52;8.43;;;3.67;;
35494;SDS011;21608;49.300;6.846;2022-10-31T18:21:56;7.72;;;3.92;;
35494;SDS011;21608;49.300;6.846;2022-10-31T18:24:57;8.25;;;3.90;;
35494;SDS011;21608;49.300;6.846;2022-10-31T18:28:02;7.88;;;4.05;;
35494;SDS011;21608;49.300;6.846;2022-10-31T18:31:05;6.38;;;3.63;;
35494;SDS011;21608;49.300;6.846;2022-10-31T18:34:07;11.23;;;3.58;;
35494;SDS011;21608;49.300;6.846;2022-10-31T18:37:09;11.18;;;4.03;;
35494;SDS011;21608;49.300;6.846;2022-10-31T18:40:10;8.82;;;4.18;;
35494;SDS011;21608;49.300;6.846;2022-10-31T18:43:12;4.95;;;3.47;;
35494;SDS011;21608;49.300;6.846;2022-10-31T18:46:14;7.28;;;3.50;;
35494;SDS011;21608;49.300;6.846;2022-10-31T18:49:18;6.22;;;3.83;;
35494;SDS011;21608;49.300;6.846;2022-10-31T18:52:22;7.18;;;3.65;;
35494;SDS011;21608;49.300;6.846;2022-10-31T18:55:24;5.40;;;3.42;;
35494;SDS011;21608;49.300;6.846;2022-10-31T18:58:26;7.55;;;4.35;;
35494;SDS011;21608;49.300;6.846;2022-10-31T19:01:28;10.43;;;4.20;;
35494;SDS011;21608;49.300;6.846;2022-10-31T19:04:31;6.05;;;4.13;;
35494;SDS011;21608;49.300;6.846;2022-10-31T19:07:32;9.38;;;3.72;;
35494;SDS011;21608;49.300;6.846;2022-10-31T19:10:35;6.20;;;3.63;;
35494;SDS011;21608;49.300;6.846;2022-10-31T19:13:39;5.70;;;3.47;;
35494;SDS011;21608;49.300;6.846;2022-10-31T19:16:41;7.30;;;3.65;;
35494;SDS011;21608;49.300;6.846;2022-10-31T19:19:43;21.35;;;18.10;;
35494;SDS011;21608;49.300;6.846;2022-10-31T19:22:45;13.30;;;12.00;;
35494;SDS011;21608;49.300;6.846;2022-10-31T19:25:46;10.95;;;8.32;;
35494;SDS011;21608;49.300;6.846;2022-10-31T19:28:48;10.30;;;6.88;;
35494;SDS011;21608;49.300;6.846;2022-10-31T19:31:50;8.75;;;6.53;;
35494;SDS011;21608;49.300;6.846;2022-10-31T19:34:52;7.93;;;5.60;;
35494;SDS011;21608;49.300;6.846;2022-10-31T19:37:53;7.35;;;5.25;;
35494;SDS011;21608;49.300;6.846;2022-10-31T19:40:56;9.60;;;5.00;;
35494;SDS011;21608;49.300;6.846;2022-10-31T19:44:00;8.20;;;5.95;;
35494;SDS011;21608;49.300;6.846;2022-10-31T19:47:02;8.85;;;7.32;;
35494;SDS011;21608;49.300;6.846;2022-10-31T19:50:03;5.97;;;5.28;;
35494;SDS011;21608;49.300;6.846;2022-10-31T19:53:05;10.45;;;5.63;;
35494;SDS011;21608;49.300;6.846;2022-10-31T19:56:09;6.88;;;5.80;;
35494;SDS011;21608;49.300;6.846;2022-10-31T19:59:12;7.40;;;5.28;;
35494;SDS011;21608;49.300;6.846;2022-10-31T20:02:14;9.18;;;4.80;;
35494;SDS011;21608;49.300;6.846;2022-10-31T20:05:19;12.90;;;4.38;;
35494;SDS011;21608;49.300;6.846;2022-10-31T20:08:21;8.20;;;4.75;;
35494;SDS011;21608;49.300;6.846;2022-10-31T20:11:24;6.88;;;5.18;;
35494;SDS011;21608;49.300;6.846;2022-10-31T20:14:27;5.18;;;4.40;;
35494;SDS011;21608;49.300;6.846;2022-10-31T20:17:28;4.72;;;4.32;;
35494;SDS011;21608;49.300;6.846;2022-10-31T20:20:30;3.92;;;3.60;;
35494;SDS011;21608;49.300;6.846;2022-10-31T20:23:33;6.72;;;3.85;;
35494;SDS011;21608;49.300;6.846;2022-10-31T20:26:36;5.80;;;4.57;;
35494;SDS011;21608;49.300;6.846;2022-10-31T20:29:39;4.53;;;4.13;;
35494;SDS011;21608;49.300;6.846;2022-10-31T20:32:41;6.18;;;4.22;;
35494;SDS011;21608;49.300;6.846;2022-10-31T20:35:50;8.27;;;5.47;;
35494;SDS011;21608;49.300;6.846;2022-10-31T20:38:52;8.63;;;5.30;;
35494;SDS011;21608;49.300;6.846;2022-10-31T20:41:53;6.20;;;4.70;;
35494;SDS011;21608;49.300;6.846;2022-10-31T20:44:55;9.88;;;5.00;;
35494;SDS011;21608;49.300;6.846;2022-10-31T20:47:57;13.35;;;5.45;;
35494;SDS011;21608;49.300;6.846;2022-10-31T20:51:02;9.02;;;5.60;;
35494;SDS011;21608;49.300;6.846;2022-10-31T20:54:05;5.78;;;4.22;;
35494;SDS011;21608;49.300;6.846;2022-10-31T20:57:07;6.00;;;4.72;;
35494;SDS011;21608;49.300;6.846;2022-10-31T21:00:09;6.65;;;4.55;;
35494;SDS011;21608;49.300;6.846;2022-10-31T21:03:11;8.27;;;4.90;;
35494;SDS011;21608;49.300;6.846;2022-10-31T21:06:14;7.72;;;5.28;;
35494;SDS011;21608;49.300;6.846;2022-10-31T21:09:16;6.15;;;4.53;;
35494;SDS011;21608;49.300;6.846;2022-10-31T21:12:18;10.65;;;4.32;;
35494;SDS011;21608;49.300;6.846;2022-10-31T21:15:20;5.47;;;4.00;;
35494;SDS011;21608;49.300;6.846;2022-10-31T21:18:21;5.38;;;4.22;;